Time;durP1;ratioP1;P1;durP2;ratioP2;P2;SDS_P1;SDS_P2;PMS_P1;PMS_P2;Temp;Humidity;BMP_temperature;BMP_pressure;BME280_temperature;BME280_humidity;BME280_pressure;Samples;Min_cycle;Max_cycle;Signal;HPM_P1;HPM_P2
2021/12/26 00:00:38;;;;;;;14.97;8.93;;;;;;;7.11;84.90;94152.59;5091628;28;20231;-62
2021/12/26 00:03:04;;;;;;;16.20;9.33;;;;;;;6.95;86.67;94127.72;5091787;28;20222;-61
2021/12/26 00:05:30;;;;;;;14.10;8.80;;;;;;;7.04;86.37;94127.00;5091537;28;20279;-61
2021/12/26 00:07:55;;;;;;;15.13;9.50;;;;;;;7.27;84.38;94163.09;5091830;28;20263;-62
2021/12/26 00:10:23;;;;;;;16.93;9.93;;;;;;;7.05;84.76;94150.56;5091575;28;20183;-62
2021/12/26 00:12:49;;;;;;;14.87;8.03;;;;;;;6.99;85.30;94135.88;5094584;28;20267;-61
2021/12/26 00:15:15;;;;;;;14.50;7.53;;;;;;;7.20;84.24;94159.44;5095774;28;20179;-63
2021/12/26 00:17:48;;;;;;;14.13;8.23;;;;;;;7.05;85.65;94131.13;5095507;28;20176;-61
2021/12/26 00:20:21;;;;;;;16.17;8.90;;;;;;;7.16;84.45;94147.97;5093937;28;20191;-62
2021/12/26 00:22:46;;;;;;;16.07;8.50;;;;;;;7.20;84.31;94145.06;5095450;28;20189;-60
2021/12/26 00:25:13;;;;;;;14.13;8.40;;;;;;;7.22;84.60;94144.94;5095310;28;20563;-62
2021/12/26 00:27:39;;;;;;;15.80;8.87;;;;;;;7.29;84.59;94135.97;5094013;28;20186;-63
2021/12/26 00:30:09;;;;;;;15.03;8.37;;;;;;;7.35;84.80;94150.63;5093942;28;20180;-62
2021/12/26 00:32:34;;;;;;;15.00;8.03;;;;;;;7.39;83.39;94154.53;5095555;28;20636;-60
2021/12/26 00:35:00;;;;;;;12.10;8.43;;;;;;;7.43;83.89;94143.22;5095191;28;20303;-62
2021/12/26 00:37:25;;;;;;;13.03;8.70;;;;;;;7.59;82.54;94154.50;5095534;28;20627;-62
2021/12/26 00:39:51;;;;;;;15.20;8.17;;;;;;;7.60;82.02;94167.94;5095410;28;20900;-63
2021/12/26 00:42:17;;;;;;;14.83;8.47;;;;;;;7.40;82.10;94153.56;5094260;28;20205;-63
2021/12/26 00:44:42;;;;;;;11.77;8.60;;;;;;;7.11;84.36;94127.31;5095405;28;20184;-61
2021/12/26 00:47:10;;;;;;;13.07;8.73;;;;;;;7.09;85.11;94124.13;5095467;28;20208;-62
2021/12/26 00:49:37;;;;;;;17.57;9.47;;;;;;;7.28;82.84;94157.09;5095192;28;20675;-62
2021/12/26 00:52:04;;;;;;;14.93;8.63;;;;;;;7.15;83.78;94141.31;5095632;28;20313;-61
2021/12/26 00:54:30;;;;;;;14.37;9.03;;;;;;;6.64;86.80;94095.69;5095255;28;20642;-59
2021/12/26 00:56:56;;;;;;;17.90;10.13;;;;;;;6.60;87.25;94114.53;5095394;28;20677;-60
2021/12/26 00:59:22;;;;;;;20.03;10.50;;;;;;;6.75;87.67;94115.84;5095291;28;20176;-62
2021/12/26 01:01:48;;;;;;;18.30;11.00;;;;;;;6.61;87.40;94100.97;5095048;28;20207;-60
2021/12/26 01:04:14;;;;;;;19.93;10.73;;;;;;;5.91;91.22;94083.72;5095172;28;20527;-63
2021/12/26 01:06:39;;;;;;;22.80;11.97;;;;;;;6.30;89.40;94094.19;5094923;28;20348;-62
2021/12/26 01:09:09;;;;;;;23.23;12.73;;;;;;;6.37;88.45;94096.13;5094851;28;20202;-63
2021/12/26 01:11:38;;;;;;;23.73;12.67;;;;;;;6.01;90.76;94076.25;5024156;22;20726;-62
2021/12/26 01:14:07;;;;;;;24.07;14.03;;;;;;;5.90;93.16;94083.81;4990468;28;20223;-62
2021/12/26 01:16:34;;;;;;;22.43;13.60;;;;;;;6.21;89.89;94105.78;4992025;28;20268;-62
2021/12/26 01:19:06;;;;;;;20.50;12.63;;;;;;;6.15;90.62;94091.13;4991998;28;20590;-61
2021/12/26 01:21:32;;;;;;;21.93;11.73;;;;;;;6.44;87.77;94119.16;4997335;23;20260;-62
2021/12/26 01:24:02;;;;;;;23.17;12.43;;;;;;;6.22;89.41;94099.81;4990977;28;20231;-60
2021/12/26 01:26:28;;;;;;;25.73;11.73;;;;;;;6.06;92.08;94068.31;4991887;28;20569;-60
2021/12/26 01:28:54;;;;;;;24.97;13.60;;;;;;;6.06;91.16;94086.75;4991544;28;20617;-63
2021/12/26 01:31:20;;;;;;;21.37;13.37;;;;;;;6.22;89.04;94102.34;4991822;28;20598;-61
2021/12/26 01:33:55;;;;;;;24.47;12.87;;;;;;;6.13;89.54;94094.66;4991789;28;20207;-62
2021/12/26 01:36:21;;;;;;;25.90;14.33;;;;;;;5.99;89.51;94075.56;5036838;22;20413;-60
2021/12/26 01:38:46;;;;;;;21.87;11.93;;;;;;;5.20;95.30;94074.81;5094370;28;20637;-61
2021/12/26 01:41:12;;;;;;;19.43;11.80;;;;;;;5.18;98.14;94072.41;5094144;28;20293;-62
2021/12/26 01:43:40;;;;;;;19.80;11.77;;;;;;;5.47;96.15;94068.56;5094102;28;20321;-62
2021/12/26 01:46:07;;;;;;;19.57;11.27;;;;;;;4.98;99.67;94071.34;5093977;28;20207;-62
2021/12/26 01:48:33;;;;;;;17.97;11.37;;;;;;;5.31;97.90;94062.25;5093745;28;20206;-61
2021/12/26 01:50:59;;;;;;;15.87;11.07;;;;;;;5.37;96.67;94066.84;5093570;28;20219;-60
2021/12/26 01:53:34;;;;;;;17.97;9.83;;;;;;;5.36;97.47;94062.69;5093694;28;20214;-63
2021/12/26 01:56:00;;;;;;;24.27;10.20;;;;;;;5.60;95.94;94065.91;5093889;28;20207;-60
2021/12/26 01:58:29;;;;;;;14.73;9.30;;;;;;;5.58;95.78;94071.06;5093556;28;20187;-60
2021/12/26 02:00:59;;;;;;;18.47;9.60;;;;;;;5.60;96.60;94068.44;5093720;28;20266;-62
2021/12/26 02:03:25;;;;;;;16.10;8.67;;;;;;;5.77;95.63;94063.75;5093567;28;20263;-61
2021/12/26 02:05:50;;;;;;;16.70;10.03;;;;;;;5.84;94.02;94059.03;5093506;28;20581;-62
2021/12/26 02:08:16;;;;;;;16.47;10.43;;;;;;;5.80;94.94;94045.03;5093803;28;20566;-62
2021/12/26 02:10:42;;;;;;;15.40;9.60;;;;;;;5.93;94.82;94055.84;5093456;28;20213;-62
2021/12/26 02:13:08;;;;;;;18.30;9.27;;;;;;;6.17;91.57;94074.13;5093174;28;20200;-61
2021/12/26 02:15:34;;;;;;;19.67;9.93;;;;;;;6.30;90.04;94077.31;5093215;28;20294;-61
2021/12/26 02:18:00;;;;;;;16.27;8.80;;;;;;;6.25;90.22;94078.59;5093206;28;20184;-61
2021/12/26 02:20:56;;;;;;;15.43;9.23;;;;;;;6.21;90.31;94069.66;5093093;28;20175;-62
2021/12/26 02:23:47;;;;;;;16.37;8.20;;;;;;;6.16;91.90;94054.88;5091686;28;20184;-60
2021/12/26 02:28:47;;;;;;;14.97;9.17;;;;;;;6.42;88.67;94088.97;5093006;28;20181;-61
2021/12/26 02:31:14;;;;;;;16.73;9.47;;;;;;;6.23;89.81;94071.16;5093385;28;20215;-62
2021/12/26 02:33:40;;;;;;;13.07;8.47;;;;;;;6.26;90.53;94067.59;5092910;28;20236;-63
2021/12/26 02:36:06;;;;;;;18.67;9.30;;;;;;;6.44;88.08;94087.16;5091465;28;20266;-59
2021/12/26 02:38:33;;;;;;;13.33;8.10;;;;;;;6.50;88.11;94095.97;5092836;28;20172;-60
2021/12/26 02:41:00;;;;;;;16.13;8.20;;;;;;;6.47;87.32;94097.00;5092949;28;20248;-62
2021/12/26 02:43:27;;;;;;;12.37;7.83;;;;;;;6.38;88.06;94087.59;5092644;28;20184;-61
2021/12/26 02:45:53;;;;;;;11.97;7.57;;;;;;;6.44;87.27;94104.84;5092769;28;20218;-61
2021/12/26 02:48:20;;;;;;;11.13;7.20;;;;;;;6.14;88.94;94073.59;5091478;28;20728;-64
2021/12/26 02:50:47;;;;;;;11.60;7.23;;;;;;;6.13;90.19;94049.25;5092476;28;20200;-62
2021/12/26 02:53:20;;;;;;;13.57;7.87;;;;;;;5.74;92.84;94035.41;5092410;28;20302;-61
2021/12/26 02:55:50;;;;;;;9.50;6.83;;;;;;;5.79;93.54;94048.50;5092419;28;20196;-61
2021/12/26 02:58:17;;;;;;;12.77;7.10;;;;;;;6.06;90.98;94073.38;5092515;28;20261;-62
2021/12/26 03:00:50;;;;;;;12.77;8.30;;;;;;;6.17;91.00;94053.97;5092650;28;20203;-63
2021/12/26 03:03:15;;;;;;;11.87;7.70;;;;;;;6.06;92.18;94043.88;5092979;28;20174;-63
2021/12/26 03:05:47;;;;;;;13.57;7.83;;;;;;;6.23;91.21;94063.56;5092688;28;20196;-63
2021/12/26 03:08:16;;;;;;;14.53;7.80;;;;;;;6.26;91.10;94049.94;5092499;28;20171;-62
2021/12/26 03:10:42;;;;;;;14.37;7.43;;;;;;;6.54;88.43;94080.47;5092363;28;20567;-62
2021/12/26 03:13:10;;;;;;;12.53;6.73;;;;;;;6.40;89.04;94082.47;5017989;22;20230;-61
2021/12/26 03:15:37;;;;;;;13.03;7.47;;;;;;;6.32;90.94;94041.88;4990150;28;20697;-60
2021/12/26 03:18:03;;;;;;;10.23;7.00;;;;;;;6.36;90.73;94044.03;4989959;28;20196;-61
2021/12/26 03:20:34;;;;;;;12.00;7.37;;;;;;;6.45;88.01;94080.38;4990215;28;20179;-59
2021/12/26 03:23:01;;;;;;;12.03;6.80;;;;;;;6.33;89.24;94049.31;4989875;28;20244;-60
2021/12/26 03:25:29;;;;;;;10.87;7.13;;;;;;;5.86;92.56;94030.28;4988487;28;20296;-63
2021/12/26 03:27:55;;;;;;;11.33;6.43;;;;;;;6.23;90.67;94060.25;4988492;28;20260;-61
2021/12/26 03:30:25;;;;;;;13.50;7.47;;;;;;;6.35;89.27;94077.78;4989719;28;20183;-63
2021/12/26 03:32:51;;;;;;;10.10;5.83;;;;;;;6.33;89.28;94056.09;4990017;28;20617;-59
2021/12/26 03:35:18;;;;;;;9.93;6.17;;;;;;;5.99;91.46;94045.28;4989693;28;20195;-61
2021/12/26 03:37:44;;;;;;;11.07;6.30;;;;;;;6.28;89.80;94060.69;4989969;28;20222;-61
2021/12/26 03:40:11;;;;;;;9.63;5.90;;;;;;;6.17;90.40;94048.91;4989568;28;20189;-60
2021/12/26 03:42:37;;;;;;;10.60;6.57;;;;;;;5.86;93.04;94050.44;4989164;28;20671;-62
2021/12/26 03:45:04;;;;;;;7.80;6.10;;;;;;;6.00;91.56;94069.56;4989881;28;20213;-62
2021/12/26 03:47:31;;;;;;;8.80;5.63;;;;;;;6.23;90.80;94050.97;4989099;28;20203;-61
2021/12/26 03:49:57;;;;;;;10.37;6.33;;;;;;;6.12;90.12;94090.56;4989640;28;20199;-60
2021/12/26 03:52:24;;;;;;;9.33;5.43;;;;;;;6.16;90.61;94057.38;4989569;28;20209;-60
2021/12/26 03:54:51;;;;;;;8.73;5.67;;;;;;;6.08;92.02;94028.66;4989710;28;20810;-60
2021/12/26 03:57:17;;;;;;;8.10;5.00;;;;;;;6.20;90.89;94068.84;4989736;28;20594;-60
2021/12/26 03:59:43;;;;;;;11.03;5.70;;;;;;;6.29;89.88;94088.34;4989232;28;20190;-60
2021/12/26 04:02:08;;;;;;;11.53;5.57;;;;;;;6.39;91.07;94053.91;4988105;28;20303;-62
2021/12/26 04:04:34;;;;;;;6.93;4.60;;;;;;;6.49;89.14;94054.78;4989646;28;20178;-63
2021/12/26 04:06:59;;;;;;;6.90;5.10;;;;;;;6.07;91.13;94073.25;4989323;28;20210;-59
2021/12/26 04:09:25;;;;;;;7.90;4.93;;;;;;;6.30;89.06;94064.69;4989311;28;20315;-62
2021/12/26 04:11:50;;;;;;;7.40;4.70;;;;;;;6.47;88.83;94107.09;4989068;28;20705;-61
2021/12/26 04:14:16;;;;;;;9.53;5.23;;;;;;;6.26;90.20;94093.59;4988968;28;20313;-59
2021/12/26 04:16:42;;;;;;;8.90;5.27;;;;;;;6.48;88.66;94093.56;4987842;28;20212;-63
2021/12/26 04:19:08;;;;;;;6.27;4.87;;;;;;;6.35;90.25;94064.34;4989414;28;20193;-60
2021/12/26 04:21:34;;;;;;;6.83;4.60;;;;;;;6.52;89.73;94096.66;4989136;28;20218;-60
2021/12/26 04:24:00;;;;;;;11.40;5.57;;;;;;;6.37;89.80;94067.53;4989153;28;20229;-60
2021/12/26 04:26:26;;;;;;;9.33;6.00;;;;;;;6.33;90.11;94084.66;4988850;28;20221;-60
2021/12/26 04:28:52;;;;;;;14.03;8.43;;;;;;;6.10;91.50;94047.00;4988997;28;20191;-60
2021/12/26 04:31:18;;;;;;;21.53;12.53;;;;;;;5.82;93.02;94071.75;4987458;28;20218;-62
2021/12/26 04:33:43;;;;;;;10.03;5.93;;;;;;;6.14;92.02;94071.84;4987456;28;20223;-60
2021/12/26 04:36:09;;;;;;;11.13;6.70;;;;;;;6.03;93.43;94040.78;4987549;28;20201;-59
2021/12/26 04:38:35;;;;;;;9.37;6.00;;;;;;;6.24;90.55;94094.66;4988595;28;20227;-62
2021/12/26 04:41:03;;;;;;;7.40;4.80;;;;;;;6.32;90.93;94072.94;4988735;28;20203;-61
2021/12/26 04:43:29;;;;;;;8.63;5.87;;;;;;;6.41;92.17;94056.28;4989205;28;20203;-62
2021/12/26 04:45:55;;;;;;;11.93;6.47;;;;;;;5.99;93.31;94057.09;4987390;28;20676;-61
2021/12/26 04:48:20;;;;;;;8.33;5.73;;;;;;;6.29;91.57;94067.34;4989093;28;20191;-62
2021/12/26 04:50:46;;;;;;;11.33;5.33;;;;;;;6.43;91.01;94090.59;4988580;28;20202;-61
2021/12/26 04:53:12;;;;;;;10.17;5.30;;;;;;;6.42;90.93;94083.94;4989090;28;20543;-60
2021/12/26 04:55:38;;;;;;;10.23;6.83;;;;;;;6.43;90.68;94088.06;4988544;28;20282;-62
2021/12/26 04:58:03;;;;;;;12.97;7.20;;;;;;;6.40;90.90;94090.81;4989100;28;20553;-60
2021/12/26 05:00:31;;;;;;;14.83;8.27;;;;;;;6.12;93.05;94071.16;4991661;28;20568;-61
2021/12/26 05:02:59;;;;;;;12.47;7.43;;;;;;;5.96;93.41;94068.19;4991711;28;20187;-62
2021/12/26 05:05:27;;;;;;;12.40;7.87;;;;;;;6.16;92.08;94096.97;4991907;28;20192;-61
2021/12/26 05:07:54;;;;;;;15.37;8.13;;;;;;;6.30;91.11;94089.94;4992308;28;20194;-63
2021/12/26 05:10:20;;;;;;;14.23;8.53;;;;;;;5.72;94.33;94075.88;4991833;28;20183;-59
2021/12/26 05:12:47;;;;;;;14.93;8.83;;;;;;;6.02;92.79;94079.56;4991621;28;20286;-62
2021/12/26 05:15:15;;;;;;;14.63;8.00;;;;;;;5.98;92.33;94083.25;4990487;28;20597;-60
2021/12/26 05:17:40;;;;;;;11.57;7.60;;;;;;;5.82;94.35;94081.84;4991803;28;20249;-60
2021/12/26 05:20:08;;;;;;;14.30;7.97;;;;;;;5.71;95.17;94073.47;4991828;28;20180;-60
2021/12/26 05:22:33;;;;;;;16.37;9.27;;;;;;;5.78;95.13;94077.94;4991656;28;20210;-62
2021/12/26 05:25:06;;;;;;;13.77;8.87;;;;;;;5.74;95.09;94088.38;4991681;28;20240;-64
2021/12/26 05:27:32;;;;;;;20.87;8.67;;;;;;;5.55;96.25;94090.66;4992073;28;20585;-62
2021/12/26 05:29:57;;;;;;;16.20;9.40;;;;;;;6.12;93.39;94106.47;4990178;28;20316;-62
2021/12/26 05:32:23;;;;;;;16.43;9.10;;;;;;;5.76;94.91;94106.69;4990167;28;20308;-62
2021/12/26 05:34:48;;;;;;;13.63;8.53;;;;;;;5.66;96.23;94111.63;4991435;28;20206;-62
2021/12/26 05:37:14;;;;;;;11.93;7.77;;;;;;;5.79;96.60;94093.88;4991549;28;20604;-59
2021/12/26 05:39:39;;;;;;;16.93;9.53;;;;;;;5.79;96.55;94109.00;4991298;28;20178;-61
2021/12/26 05:42:05;;;;;;;14.20;8.50;;;;;;;5.36;98.33;94097.97;4991452;28;20215;-59
2021/12/26 05:44:31;;;;;;;16.97;9.40;;;;;;;5.54;100.00;94084.00;4989936;28;20201;-60
2021/12/26 05:46:56;;;;;;;16.50;9.27;;;;;;;5.74;99.35;94093.41;4991461;28;20205;-61
2021/12/26 05:49:22;;;;;;;16.23;8.80;;;;;;;6.19;95.57;94100.06;4991402;28;20189;-63
2021/12/26 05:51:47;;;;;;;13.20;8.83;;;;;;;5.66;99.66;94103.25;4991509;28;20233;-59
2021/12/26 05:54:13;;;;;;;13.13;8.33;;;;;;;5.98;97.05;94091.59;4991027;28;20591;-62
2021/12/26 05:56:39;;;;;;;14.63;8.93;;;;;;;6.16;97.58;94099.50;4991080;28;20207;-62
2021/12/26 05:59:04;;;;;;;13.87;8.20;;;;;;;6.41;95.82;94102.53;4991182;28;20182;-63
2021/12/26 06:01:29;;;;;;;16.57;10.47;;;;;;;6.57;94.14;94108.00;4991008;28;20222;-61
2021/12/26 06:03:55;;;;;;;17.17;10.73;;;;;;;6.52;93.23;94082.31;4990977;28;20179;-60
2021/12/26 06:06:20;;;;;;;17.87;11.03;;;;;;;5.92;100.00;94089.53;4990894;28;20247;-63
2021/12/26 06:08:46;;;;;;;18.27;10.73;;;;;;;5.56;100.00;94092.25;4991006;28;20186;-63
2021/12/26 06:11:12;;;;;;;19.93;11.13;;;;;;;5.92;100.00;94049.19;4990107;28;20209;-62
2021/12/26 06:13:37;;;;;;;21.60;11.10;;;;;;;5.50;100.00;94050.69;4990588;28;20207;-60
2021/12/26 06:16:03;;;;;;;17.13;11.33;;;;;;;4.98;100.00;94073.88;4990941;28;20225;-59
2021/12/26 06:18:28;;;;;;;17.70;10.13;;;;;;;5.45;100.00;94062.03;4991338;28;20197;-61
2021/12/26 06:20:54;;;;;;;19.37;10.27;;;;;;;5.99;100.00;94070.50;4989483;28;20296;-62
2021/12/26 06:23:20;;;;;;;18.27;9.90;;;;;;;5.97;100.00;94047.13;4989570;28;20791;-61
2021/12/26 06:25:45;;;;;;;18.47;11.10;;;;;;;6.13;100.00;94052.59;4989541;28;20233;-62
2021/12/26 06:28:11;;;;;;;19.57;10.90;;;;;;;5.81;100.00;94051.69;4989400;28;20281;-60
2021/12/26 06:30:36;;;;;;;16.07;9.50;;;;;;;5.61;100.00;94052.41;4995619;23;20225;-61
2021/12/26 06:33:02;;;;;;;19.03;10.77;;;;;;;5.55;100.00;94037.75;4989097;28;20247;-60
2021/12/26 06:35:28;;;;;;;18.43;9.50;;;;;;;5.36;100.00;94038.31;4989362;28;20187;-59
2021/12/26 06:37:53;;;;;;;12.07;8.07;;;;;;;5.29;100.00;94054.81;4990621;28;20202;-61
2021/12/26 06:40:19;;;;;;;12.80;7.43;;;;;;;5.30;100.00;94050.53;4990243;28;20294;-61
2021/12/26 06:42:46;;;;;;;14.50;8.60;;;;;;;5.20;100.00;94020.19;4990038;28;20248;-61
2021/12/26 06:45:15;;;;;;;14.00;7.60;;;;;;;4.81;100.00;94053.31;4990046;28;20187;-61
2021/12/26 06:47:45;;;;;;;11.20;7.20;;;;;;;4.52;100.00;94032.78;4990119;28;20233;-61
2021/12/26 06:50:10;;;;;;;15.43;6.20;;;;;;;4.96;100.00;94039.63;4990102;28;20647;-62
2021/12/26 06:52:36;;;;;;;10.67;6.80;;;;;;;4.90;100.00;94013.19;4990496;28;20279;-60
2021/12/26 06:55:02;;;;;;;10.77;6.53;;;;;;;4.67;100.00;94069.41;4990208;28;20235;-60
2021/12/26 06:57:27;;;;;;;8.20;5.87;;;;;;;4.67;100.00;94064.38;4990393;28;20629;-62
2021/12/26 06:59:53;;;;;;;8.20;5.40;;;;;;;4.59;100.00;94068.34;4990314;28;20216;-61
2021/12/26 07:02:18;;;;;;;12.47;6.03;;;;;;;4.57;100.00;94086.09;4990246;28;20209;-61
2021/12/26 07:04:44;;;;;;;10.77;6.20;;;;;;;4.78;100.00;94049.31;4989847;28;20573;-61
2021/12/26 07:07:09;;;;;;;11.37;6.33;;;;;;;4.95;100.00;94084.16;4990018;28;20202;-62
2021/12/26 07:09:35;;;;;;;11.93;7.60;;;;;;;4.94;100.00;94100.19;4990053;28;20277;-61
2021/12/26 07:12:00;;;;;;;15.80;7.87;;;;;;;4.72;100.00;94089.22;4990005;28;20223;-61
2021/12/26 07:14:26;;;;;;;14.23;7.77;;;;;;;5.08;100.00;94107.56;4989682;28;20214;-63
2021/12/26 07:16:51;;;;;;;10.97;7.50;;;;;;;5.05;100.00;94092.66;4989342;28;20279;-63
2021/12/26 07:19:17;;;;;;;13.67;6.93;;;;;;;5.39;100.00;94098.56;4989670;28;20190;-61
2021/12/26 07:21:43;;;;;;;14.80;7.07;;;;;;;5.44;100.00;94110.81;4988448;28;20331;-62
2021/12/26 07:24:09;;;;;;;11.50;6.80;;;;;;;5.21;100.00;94097.41;4989594;28;20216;-63
2021/12/26 07:26:34;;;;;;;13.97;7.40;;;;;;;5.01;100.00;94101.34;4989986;28;20285;-62
2021/12/26 07:29:00;;;;;;;10.03;7.00;;;;;;;5.46;100.00;94116.53;4988309;28;20275;-62
2021/12/26 07:31:26;;;;;;;11.07;6.93;;;;;;;5.62;100.00;94122.88;4989372;28;20718;-60
2021/12/26 07:33:51;;;;;;;11.10;6.90;;;;;;;5.60;100.00;94102.00;4989515;28;20683;-62
2021/12/26 07:36:17;;;;;;;11.93;6.70;;;;;;;5.82;100.00;94121.38;4989264;28;20315;-61
2021/12/26 07:38:43;;;;;;;10.20;6.50;;;;;;;5.63;100.00;94113.59;4989366;28;20277;-60
2021/12/26 07:41:08;;;;;;;10.83;7.07;;;;;;;5.58;100.00;94090.44;4989568;28;20263;-62
2021/12/26 07:43:34;;;;;;;11.73;7.07;;;;;;;5.47;100.00;94095.47;5027420;22;20241;-63
2021/12/26 07:46:00;;;;;;;11.57;7.00;;;;;;;5.39;100.00;94133.84;5091529;28;20197;-62
2021/12/26 07:48:25;;;;;;;10.50;6.87;;;;;;;5.75;100.00;94100.88;5091682;28;20210;-62
2021/12/26 07:50:51;;;;;;;10.93;7.53;;;;;;;5.69;100.00;94118.19;5091325;28;20203;-61
2021/12/26 07:53:16;;;;;;;10.77;6.83;;;;;;;6.02;100.00;94114.88;5091509;28;20681;-62
2021/12/26 07:55:42;;;;;;;10.43;6.47;;;;;;;5.85;100.00;94118.66;5091740;28;20245;-61
2021/12/26 07:58:07;;;;;;;11.50;6.17;;;;;;;6.10;100.00;94122.69;5091859;28;20195;-61
2021/12/26 08:00:34;;;;;;;10.33;6.70;;;;;;;5.72;100.00;94111.19;5091459;28;20283;-66
2021/12/26 08:02:59;;;;;;;11.97;6.77;;;;;;;6.03;100.00;94066.84;5092175;28;20218;-62
2021/12/26 08:05:25;;;;;;;10.47;6.67;;;;;;;5.69;100.00;94108.09;5091201;28;20206;-60
2021/12/26 08:07:51;;;;;;;11.90;6.77;;;;;;;5.76;100.00;94084.81;5091651;28;20260;-62
2021/12/26 08:10:18;;;;;;;9.53;5.90;;;;;;;5.87;100.00;94079.81;5091452;28;20199;-63
2021/12/26 08:12:43;;;;;;;16.60;8.63;;;;;;;5.71;100.00;94103.75;5003558;22;20732;-61
2021/12/26 08:15:09;;;;;;;14.53;7.13;;;;;;;6.02;100.00;94098.00;4989218;28;20227;-62
2021/12/26 08:17:35;;;;;;;11.87;7.23;;;;;;;6.06;100.00;94075.88;4989340;28;20206;-63
2021/12/26 08:20:03;;;;;;;9.80;6.27;;;;;;;6.29;100.00;94063.09;4988903;28;20641;-61
2021/12/26 08:22:28;;;;;;;10.50;7.10;;;;;;;6.15;100.00;94075.97;4988722;28;20661;-64
2021/12/26 08:24:54;;;;;;;10.03;5.83;;;;;;;6.50;100.00;94076.59;4987607;28;20211;-63
2021/12/26 08:27:19;;;;;;;8.83;5.50;;;;;;;6.38;100.00;94082.56;4989393;28;20210;-61
2021/12/26 08:29:46;;;;;;;10.57;6.47;;;;;;;6.35;100.00;94075.25;4988685;28;20619;-62
2021/12/26 08:32:15;;;;;;;7.50;5.17;;;;;;;6.84;100.00;94076.44;4992846;23;20727;-61
2021/12/26 08:34:41;;;;;;;7.97;5.50;;;;;;;6.79;100.00;94081.84;4992091;28;20217;-62
2021/12/26 08:37:06;;;;;;;9.43;6.03;;;;;;;7.06;100.00;94078.84;4992107;28;20202;-61
2021/12/26 08:39:38;;;;;;;8.70;5.97;;;;;;;6.80;100.00;94101.16;5046937;22;20228;-63
2021/12/26 08:42:06;;;;;;;13.53;6.13;;;;;;;7.17;100.00;94077.06;5094850;28;20268;-61
2021/12/26 08:44:33;;;;;;;12.33;6.63;;;;;;;6.93;100.00;94109.34;5095099;28;20274;-61
2021/12/26 08:46:58;;;;;;;8.43;5.60;;;;;;;6.86;100.00;94097.34;5094803;28;20233;-62
2021/12/26 08:49:24;;;;;;;6.90;5.00;;;;;;;7.10;100.00;94095.38;5097716;28;20183;-62
2021/12/26 08:51:51;;;;;;;8.43;5.47;;;;;;;7.11;100.00;94105.34;5094801;28;20224;-61
2021/12/26 08:54:16;;;;;;;8.90;5.63;;;;;;;7.25;100.00;94107.56;5095153;28;20219;-61
2021/12/26 08:56:44;;;;;;;10.13;5.87;;;;;;;7.26;100.00;94111.72;5094356;28;20210;-62
2021/12/26 08:59:10;;;;;;;8.80;3.90;;;;;;;7.48;97.44;94113.31;5093109;28;20192;-62
2021/12/26 09:01:36;;;;;;;7.13;4.80;;;;;;;7.60;97.42;94099.66;5094117;28;20288;-61
2021/12/26 09:04:02;;;;;;;8.33;5.33;;;;;;;7.63;95.65;94119.66;5094536;28;20649;-61
2021/12/26 09:06:28;;;;;;;12.13;7.03;;;;;;;7.54;97.90;94100.16;5094264;28;20195;-62
2021/12/26 09:08:53;;;;;;;11.50;6.37;;;;;;;7.35;98.37;94089.97;5094157;28;20599;-61
2021/12/26 09:11:19;;;;;;;9.80;6.77;;;;;;;7.37;100.00;94063.59;5094454;28;20192;-61
2021/12/26 09:13:45;;;;;;;10.70;6.40;;;;;;;7.38;98.37;94097.28;5096019;28;20218;-62
2021/12/26 09:16:11;;;;;;;8.30;5.47;;;;;;;7.48;98.80;94075.38;5092513;28;20660;-62
2021/12/26 09:18:38;;;;;;;10.83;5.97;;;;;;;7.67;99.33;94057.78;5092719;28;20249;-62
2021/12/26 09:21:03;;;;;;;9.13;6.07;;;;;;;7.74;99.14;94043.66;5093914;28;20200;-62
2021/12/26 09:23:29;;;;;;;11.80;6.53;;;;;;;7.69;99.15;94077.88;5093989;28;20304;-63
2021/12/26 09:25:54;;;;;;;9.90;5.97;;;;;;;7.85;95.67;94100.97;5092616;28;20580;-62
2021/12/26 09:28:20;;;;;;;9.63;6.03;;;;;;;7.94;94.36;94098.47;5093657;28;20176;-61
2021/12/26 09:30:45;;;;;;;8.57;5.53;;;;;;;7.95;95.56;94092.50;5094053;28;20229;-63
2021/12/26 09:33:11;;;;;;;8.63;5.93;;;;;;;8.19;94.40;94103.09;5093589;28;20211;-61
2021/12/26 09:35:37;;;;;;;8.43;5.53;;;;;;;8.40;93.30;94105.59;5093562;28;20199;-60
2021/12/26 09:38:05;;;;;;;10.90;6.67;;;;;;;7.85;97.35;94071.41;5092593;28;20244;-62
2021/12/26 09:40:31;;;;;;;12.17;7.33;;;;;;;8.34;93.36;94117.00;5094069;28;20215;-62
2021/12/26 09:42:57;;;;;;;10.23;6.67;;;;;;;8.29;93.46;94114.06;5093425;28;20183;-62
2021/12/26 09:45:22;;;;;;;10.10;6.67;;;;;;;8.55;93.68;94091.59;5092352;28;20196;-62
2021/12/26 09:47:51;;;;;;;12.53;7.67;;;;;;;8.56;93.80;94102.53;5005646;22;20709;-62
2021/12/26 09:50:21;;;;;;;13.40;7.77;;;;;;;8.50;92.96;94105.59;4990540;28;20182;-62
2021/12/26 09:52:48;;;;;;;11.13;6.93;;;;;;;8.51;94.23;94076.78;4990562;28;20266;-59
2021/12/26 09:55:15;;;;;;;9.97;7.13;;;;;;;8.47;96.26;94076.25;4990722;28;20203;-63
2021/12/26 09:57:41;;;;;;;12.33;7.50;;;;;;;8.78;91.91;94114.97;4990466;28;20176;-62
2021/12/26 10:00:37;;;;;;;16.20;7.20;;;;;;;8.37;96.39;94063.59;4990993;28;20198;-62
2021/12/26 10:03:25;;;;;;;11.40;7.07;;;;;;;8.36;96.67;94064.50;4982120;28;20210;-62
2021/12/26 10:06:06;;;;;;;9.47;6.77;;;;;;;8.74;93.68;94094.16;4990625;28;20222;-63
2021/12/26 10:08:35;;;;;;;9.47;6.80;;;;;;;8.83;94.86;94115.34;4990702;28;20164;-62
2021/12/26 10:11:07;;;;;;;12.07;7.13;;;;;;;8.96;91.38;94121.78;4990668;28;20313;-61
2021/12/26 10:13:44;;;;;;;13.23;8.17;;;;;;;8.55;94.65;94088.25;4989471;28;20626;-62
2021/12/26 10:16:10;;;;;;;10.10;6.57;;;;;;;8.84;91.40;94120.31;4990659;28;20234;-63
2021/12/26 10:18:41;;;;;;;10.33;6.53;;;;;;;9.02;89.04;94135.66;4990315;28;20180;-62
2021/12/26 10:21:28;;;;;;;12.60;7.60;;;;;;;9.07;100.00;94057.47;4990482;28;20218;-61
2021/12/26 10:23:57;;;;;;;7.57;5.77;;;;;;;10.27;100.00;94057.44;4990377;28;20672;-61
2021/12/26 10:26:26;;;;;;;7.33;5.17;;;;;;;11.67;100.00;94076.94;4989957;28;20208;-59
2021/12/26 10:29:12;;;;;;;10.10;5.47;;;;;;;11.68;96.50;94242.28;4990402;28;20179;-60
2021/12/26 10:31:48;;;;;;;10.60;4.30;;;;;;;11.28;97.62;94157.09;4990530;28;20222;-60
2021/12/26 10:34:25;;;;;;;6.83;4.33;;;;;;;10.76;98.38;94161.22;4990043;28;20199;-60
2021/12/26 10:36:53;;;;;;;9.50;5.20;;;;;;;10.56;98.85;94152.91;4990433;28;20705;-59
2021/12/26 10:39:28;;;;;;;5.90;4.20;;;;;;;10.60;98.14;94140.72;4988625;28;20207;-59
2021/12/26 10:41:56;;;;;;;9.53;4.43;;;;;;;10.45;100.00;94106.56;4990187;28;20207;-58
2021/12/26 10:44:25;;;;;;;9.80;5.10;;;;;;;10.21;98.79;94152.00;4989977;28;20311;-58
2021/12/26 10:46:57;;;;;;;12.83;5.73;;;;;;;9.73;100.00;94111.53;4989841;28;20266;-59
2021/12/26 10:49:24;;;;;;;7.97;4.77;;;;;;;9.99;100.00;94100.63;4973032;28;20183;-59
2021/12/26 10:51:49;;;;;;;8.87;4.77;;;;;;;10.20;100.00;94051.34;4989645;28;20526;-60
2021/12/26 10:54:18;;;;;;;9.33;4.73;;;;;;;10.67;99.92;94101.06;4989613;28;20203;-60
2021/12/26 10:57:02;;;;;;;7.03;5.03;;;;;;;10.78;96.99;94136.47;4990032;28;20290;-59
2021/12/26 10:59:35;;;;;;;6.23;5.20;;;;;;;10.55;99.30;94105.56;4989949;28;20183;-62
2021/12/26 11:02:08;;;;;;;6.93;5.07;;;;;;;10.23;98.28;94106.94;4990445;28;20247;-58
2021/12/26 11:04:35;;;;;;;7.17;4.67;;;;;;;10.39;99.43;94091.88;4996881;23;20198;-59
2021/12/26 11:07:10;;;;;;;8.60;4.87;;;;;;;10.30;97.46;94131.66;4989026;28;20211;-60
2021/12/26 11:09:36;;;;;;;7.30;4.40;;;;;;;10.76;96.53;94143.44;4988341;28;20557;-59
2021/12/26 11:12:10;;;;;;;14.93;5.00;;;;;;;10.93;97.58;94132.47;4989594;28;20204;-59
2021/12/26 11:14:59;;;;;;;10.80;5.33;;;;;;;10.93;96.33;94158.69;4989743;28;20223;-64
2021/12/26 11:17:32;;;;;;;8.00;5.00;;;;;;;10.81;96.08;94164.13;4989868;28;20715;-59
2021/12/26 11:19:58;;;;;;;9.50;5.07;;;;;;;10.94;96.45;94157.75;4989849;28;20183;-58
2021/12/26 11:22:25;;;;;;;8.33;4.97;;;;;;;10.83;96.82;94144.44;4989637;28;20624;-59
2021/12/26 11:24:59;;;;;;;7.50;4.87;;;;;;;11.13;95.05;94182.25;4989692;28;20214;-62
2021/12/26 11:27:25;;;;;;;10.50;4.80;;;;;;;11.21;95.26;94164.50;4988173;28;20203;-59
2021/12/26 11:29:52;;;;;;;7.23;4.63;;;;;;;11.10;96.32;94133.41;4989500;28;20188;-58
2021/12/26 11:32:19;;;;;;;9.03;4.70;;;;;;;11.28;96.74;94140.09;4989714;28;20200;-59
2021/12/26 11:34:48;;;;;;;7.83;5.07;;;;;;;11.50;93.75;94185.44;4989749;28;20687;-63